createdAt,value
2022-09-10T00:01:40.013Z,99116.60
2022-09-10T00:04:12.685Z,99110.20
2022-09-10T00:06:42.248Z,99106.00
2022-09-10T00:09:11.596Z,99102.60
2022-09-10T00:11:41.609Z,99104.20
2022-09-10T00:14:21.753Z,99094.80
2022-09-10T00:16:50.888Z,99099.80
2022-09-10T00:19:20.064Z,99100.60
2022-09-10T00:21:50.990Z,99105.80
2022-09-10T00:24:20.082Z,99106.60
2022-09-10T00:26:48.782Z,99099.20
2022-09-10T00:29:18.895Z,99094.60
2022-09-10T00:31:47.728Z,99099.60
2022-09-10T00:34:17.002Z,99093.80
2022-09-10T00:36:47.053Z,99097.20
2022-09-10T00:39:17.918Z,99093.00
2022-09-10T00:41:48.124Z,99091.80
2022-09-10T00:44:41.423Z,99093.60
2022-09-10T00:47:19.633Z,99091.00
2022-09-10T00:49:58.773Z,99092.40
2022-09-10T00:52:29.703Z,99088.80
2022-09-10T00:54:58.279Z,99086.20
2022-09-10T00:57:26.984Z,99077.80
2022-09-10T01:00:04.463Z,99078.20
2022-09-10T01:02:33.762Z,99080.80
2022-09-10T01:05:04.353Z,99074.80
2022-09-10T01:07:34.014Z,99070.80
2022-09-10T01:10:12.110Z,99067.20
2022-09-10T01:13:09.371Z,99066.60
2022-09-10T01:15:55.808Z,99065.20
2022-09-10T01:18:59.745Z,99062.00
2022-09-10T01:21:45.258Z,99063.40
2022-09-10T01:24:19.163Z,99056.40
2022-09-10T01:27:27.066Z,99055.40
2022-09-10T01:30:08.007Z,99053.60
2022-09-10T01:33:26.286Z,99052.20
2022-09-10T01:35:59.442Z,99045.20
2022-09-10T01:38:36.103Z,99039.00
2022-09-10T01:41:06.244Z,99040.20
2022-09-10T01:43:39.157Z,99043.80
2022-09-10T01:46:33.145Z,99042.80
2022-09-10T01:50:00.563Z,99052.40
2022-09-10T01:52:44.546Z,99048.60
2022-09-10T01:55:30.685Z,99048.40
2022-09-10T01:58:13.557Z,99041.00
2022-09-10T02:01:15.026Z,99045.60
2022-09-10T02:03:47.296Z,99041.40
2022-09-10T02:06:19.959Z,99041.00
2022-09-10T02:08:50.627Z,99047.00
2022-09-10T02:11:19.788Z,99058.40
2022-09-10T02:13:52.056Z,99073.20
2022-09-10T02:16:38.073Z,99076.80
2022-09-10T02:19:08.572Z,99079.40
2022-09-10T02:21:37.675Z,99071.40
2022-09-10T02:24:10.357Z,99070.40
2022-09-10T02:26:41.900Z,99061.20
2022-09-10T02:29:14.185Z,99059.60
2022-09-10T02:31:44.212Z,99068.20
2022-09-10T02:34:16.328Z,99061.20
2022-09-10T02:36:47.317Z,99057.40
2022-09-10T02:39:16.394Z,99060.80
2022-09-10T02:41:48.568Z,99059.20
2022-09-10T02:44:18.067Z,99065.00
2022-09-10T02:46:46.958Z,99056.20
2022-09-10T02:49:16.051Z,99053.20
2022-09-10T02:51:45.142Z,99058.00
2022-09-10T02:54:13.945Z,99044.80
2022-09-10T02:56:43.649Z,99039.80
2022-09-10T02:59:12.717Z,99037.20
2022-09-10T03:01:45.781Z,99037.60
2022-09-10T03:04:16.061Z,99038.00
2022-09-10T03:06:45.224Z,99037.20
2022-09-10T03:09:13.973Z,99034.40
2022-09-10T03:11:42.717Z,99037.40
2022-09-10T03:14:12.543Z,99035.40
2022-09-10T03:16:41.377Z,99033.60
2022-09-10T03:19:10.317Z,99033.60
2022-09-10T03:21:41.970Z,99028.00
2022-09-10T03:24:15.241Z,99022.40
2022-09-10T03:26:44.871Z,99012.80
2022-09-10T03:29:16.019Z,99008.20
2022-09-10T03:31:46.833Z,99005.00
2022-09-10T03:34:17.975Z,98999.20
2022-09-10T03:36:47.820Z,99004.20
2022-09-10T03:39:18.179Z,99001.60
2022-09-10T03:41:48.344Z,98991.00
2022-09-10T03:44:17.548Z,98992.20
2022-09-10T03:46:49.111Z,98980.20
2022-09-10T03:49:19.226Z,98974.80
2022-09-10T03:51:48.727Z,98977.20
2022-09-10T03:54:18.231Z,98986.60
2022-09-10T03:56:47.950Z,98996.40
2022-09-10T03:59:17.755Z,98989.80
2022-09-10T04:01:47.557Z,98988.80
2022-09-10T04:04:16.759Z,98986.40
2022-09-10T04:06:46.786Z,98990.00
2022-09-10T04:09:16.793Z,98991.00
2022-09-10T04:11:45.782Z,98995.00
2022-09-10T04:14:16.130Z,98987.00
2022-09-10T04:16:45.241Z,98984.20
2022-09-10T04:19:16.974Z,98983.20
2022-09-10T04:21:46.162Z,98978.00
2022-09-10T04:24:15.358Z,98975.80
2022-09-10T04:26:44.859Z,98977.40
2022-09-10T04:29:16.622Z,98974.20
2022-09-10T04:31:47.125Z,98970.80
2022-09-10T04:34:18.938Z,98972.80
2022-09-10T04:36:48.204Z,98973.40
2022-09-10T04:39:20.995Z,98972.40
2022-09-10T04:41:51.425Z,98971.60
2022-09-10T04:44:20.544Z,98972.80
2022-09-10T04:46:49.925Z,98975.00
2022-09-10T04:49:18.905Z,98975.40
2022-09-10T04:51:48.616Z,98977.20
2022-09-10T04:54:18.022Z,98970.60
2022-09-10T04:56:50.919Z,98964.20
2022-09-10T04:59:20.965Z,98961.20
2022-09-10T05:01:50.714Z,98958.40
2022-09-10T05:04:19.927Z,98959.20
2022-09-10T05:06:50.628Z,98959.00
2022-09-10T05:09:19.860Z,98962.20
2022-09-10T05:11:50.297Z,98953.40
2022-09-10T05:14:21.000Z,98951.00
2022-09-10T05:16:49.890Z,98954.40
2022-09-10T05:19:19.111Z,98951.80
2022-09-10T05:21:56.203Z,98946.80
2022-09-10T05:24:25.285Z,98945.00
2022-09-10T05:26:53.975Z,98950.80
2022-09-10T05:29:24.325Z,98954.20
2022-09-10T05:31:53.562Z,98948.20
2022-09-10T05:34:24.949Z,98949.60
2022-09-10T05:36:56.237Z,98944.60
2022-09-10T05:39:25.192Z,98943.60
2022-09-10T05:41:55.590Z,98948.80
2022-09-10T05:44:25.422Z,98950.20
2022-09-10T05:46:54.332Z,98960.40
2022-09-10T05:49:23.102Z,98956.80
2022-09-10T05:52:04.874Z,98965.40
2022-09-10T05:54:54.715Z,98960.40
2022-09-10T05:57:26.964Z,98948.40
2022-09-10T05:59:58.784Z,98947.60
2022-09-10T06:02:28.317Z,98951.20
2022-09-10T06:05:00.477Z,98957.80
2022-09-10T06:07:30.184Z,98972.60
2022-09-10T06:10:00.717Z,98977.00
2022-09-10T06:12:40.664Z,98978.00
2022-09-10T06:15:10.982Z,98976.20
2022-09-10T06:17:40.702Z,98981.40
2022-09-10T06:20:11.481Z,98988.80
2022-09-10T06:22:41.458Z,98990.40
2022-09-10T06:25:11.482Z,98985.80
2022-09-10T06:27:42.202Z,98987.40
2022-09-10T06:30:12.011Z,98984.20
2022-09-10T06:32:42.745Z,98988.40
2022-09-10T06:35:11.729Z,98984.80
2022-09-10T06:37:40.630Z,98980.20
2022-09-10T06:40:11.511Z,98977.80
2022-09-10T06:42:41.705Z,98967.40
2022-09-10T06:45:16.953Z,98965.40
2022-09-10T06:48:37.220Z,98974.20
2022-09-10T06:50:57.631Z,98975.00
2022-09-10T06:53:33.776Z,98969.40
2022-09-10T06:56:06.206Z,98972.20
2022-09-10T06:58:37.081Z,98967.60
2022-09-10T07:01:17.986Z,98970.40
2022-09-10T07:03:56.376Z,98975.00
2022-09-10T07:06:26.587Z,98977.40
2022-09-10T07:09:00.500Z,98978.60
2022-09-10T07:11:40.696Z,98984.60
2022-09-10T07:14:12.998Z,98981.40
2022-09-10T07:16:41.916Z,98985.60
2022-09-10T07:19:15.465Z,98981.20
2022-09-10T07:21:46.593Z,98982.00
2022-09-10T07:24:20.404Z,98980.60
2022-09-10T07:27:00.855Z,98979.40
2022-09-10T07:29:31.563Z,98982.20
2022-09-10T07:32:03.631Z,98977.00
2022-09-10T07:34:33.026Z,98981.00
2022-09-10T07:37:03.887Z,98976.60
2022-09-10T07:39:33.787Z,98973.80
2022-09-10T07:42:03.390Z,98980.40
2022-09-10T07:44:35.757Z,98979.60
2022-09-10T07:47:05.567Z,98975.20
2022-09-10T07:49:35.035Z,98978.60
2022-09-10T07:52:05.608Z,98983.20
2022-09-10T07:54:42.505Z,98974.20
2022-09-10T07:57:12.321Z,98973.60
2022-09-10T07:59:41.893Z,98977.20
2022-09-10T08:02:16.300Z,98979.00
2022-09-10T08:04:48.385Z,98976.80
2022-09-10T08:07:18.114Z,98968.60
2022-09-10T08:09:50.017Z,98967.00
2022-09-10T08:12:20.425Z,98969.40
2022-09-10T08:14:49.772Z,98970.00
2022-09-10T08:17:20.165Z,98974.20
2022-09-10T08:19:51.246Z,98980.40
2022-09-10T08:22:21.185Z,98978.40
2022-09-10T08:26:15.444Z,98974.80
2022-09-10T08:28:47.450Z,98977.80
2022-09-10T08:31:18.062Z,98973.60
2022-09-10T08:33:54.243Z,98978.00
2022-09-10T08:36:24.739Z,98968.80
2022-09-10T08:38:59.778Z,98964.20
2022-09-10T08:41:41.295Z,98962.60
2022-09-10T08:44:37.670Z,98960.40
2022-09-10T08:47:35.110Z,98963.20
2022-09-10T08:50:28.012Z,98966.80
2022-09-10T08:53:27.609Z,98972.60
2022-09-10T08:56:05.691Z,98973.40
2022-09-10T08:59:30.530Z,98965.80
2022-09-10T09:02:37.754Z,98965.20
2022-09-10T09:05:14.811Z,98963.40
2022-09-10T09:07:42.653Z,98964.60
2022-09-10T09:10:25.053Z,98957.20
2022-09-10T09:13:03.262Z,98955.00
2022-09-10T09:16:34.839Z,98953.80
2022-09-10T09:19:41.920Z,98947.60
2022-09-10T09:22:45.311Z,98951.40
2022-09-10T09:25:27.620Z,98948.00
2022-09-10T09:27:59.649Z,98949.00
2022-09-10T09:30:36.298Z,98945.80
2022-09-10T09:33:14.471Z,98952.60
2022-09-10T09:36:00.933Z,98946.60
2022-09-10T09:38:34.811Z,98944.40
2022-09-10T09:41:26.103Z,98936.40
2022-09-10T09:44:03.901Z,98935.40
2022-09-10T09:46:34.475Z,98935.20
2022-09-10T09:49:04.430Z,98936.80
2022-09-10T09:51:35.520Z,98933.80
2022-09-10T09:57:20.180Z,98932.80
2022-09-10T09:59:49.252Z,98925.40
2022-09-10T10:02:25.217Z,98928.00
2022-09-10T10:05:06.871Z,98925.60
2022-09-10T10:07:35.991Z,98928.40
2022-09-10T10:10:07.105Z,98933.60
2022-09-10T10:12:35.511Z,98929.00
2022-09-10T10:15:03.891Z,98923.40
2022-09-10T10:17:36.254Z,98918.60
2022-09-10T10:20:14.167Z,98913.40
2022-09-10T10:22:44.178Z,98909.00
2022-09-10T10:25:41.278Z,98903.40
2022-09-10T10:28:24.071Z,98911.00
2022-09-10T10:30:58.298Z,98908.00
2022-09-10T10:33:31.463Z,98902.00
2022-09-10T10:36:32.899Z,98901.20
2022-09-10T10:39:49.358Z,98904.80
2022-09-10T10:42:42.063Z,98906.00
2022-09-10T10:45:38.500Z,98908.40
2022-09-10T10:48:35.440Z,98907.20
2022-09-10T10:51:18.256Z,98903.00
2022-09-10T10:53:55.240Z,98907.60
2022-09-10T10:56:49.515Z,98903.20
2022-09-10T10:59:44.495Z,98912.00
2022-09-10T11:02:17.877Z,98923.40
2022-09-10T11:04:53.675Z,98928.20
2022-09-10T11:07:40.386Z,98923.40
2022-09-10T11:10:30.063Z,98919.60
2022-09-10T11:13:21.895Z,98912.80
2022-09-10T11:16:06.286Z,98910.80
2022-09-10T11:18:44.563Z,98902.80
2022-09-10T11:21:34.550Z,98905.40
2022-09-10T11:24:18.552Z,98902.80
2022-09-10T11:27:04.799Z,98908.00
2022-09-10T11:30:06.743Z,98906.00
2022-09-10T11:33:01.753Z,98902.60
2022-09-10T11:36:00.140Z,98904.20
2022-09-10T11:38:32.112Z,98900.40
2022-09-10T11:41:23.415Z,98901.80
2022-09-10T11:44:36.468Z,98901.80
2022-09-10T11:47:21.100Z,98898.20
2022-09-10T11:50:15.694Z,98901.40
2022-09-10T11:52:43.763Z,98897.60
2022-09-10T11:55:15.364Z,98895.60
2022-09-10T11:58:11.574Z,98893.20
2022-09-10T12:00:52.657Z,98893.40
2022-09-10T12:03:28.114Z,98896.80
2022-09-10T12:06:28.904Z,98895.60
2022-09-10T12:09:39.684Z,98898.60
2022-09-10T12:12:27.818Z,98886.60
2022-09-10T12:14:59.784Z,98885.60
2022-09-10T12:17:34.050Z,98881.00
2022-09-10T12:20:04.734Z,98876.00
2022-09-10T12:22:40.173Z,98871.00
2022-09-10T12:25:24.323Z,98873.80
2022-09-10T12:27:53.523Z,98873.20
2022-09-10T12:30:27.570Z,98867.20
2022-09-10T12:33:24.695Z,98866.60
2022-09-10T12:35:52.655Z,98855.80
2022-09-10T12:39:01.382Z,98857.80
2022-09-10T12:41:29.596Z,98857.00
2022-09-10T12:43:58.723Z,98855.40
2022-09-10T12:46:27.057Z,98856.20
2022-09-10T12:48:55.939Z,98854.00
2022-09-10T12:51:47.641Z,98844.60
2022-09-10T12:55:08.228Z,98841.00
2022-09-10T12:57:58.129Z,98845.00
2022-09-10T13:00:27.975Z,98843.20
2022-09-10T13:03:08.329Z,98846.20
2022-09-10T13:05:47.317Z,98844.60
2022-09-10T13:08:15.196Z,98839.00
2022-09-10T13:11:12.456Z,98844.60
2022-09-10T13:13:50.859Z,98842.80
2022-09-10T13:16:21.816Z,98842.40
2022-09-10T13:18:55.058Z,98837.20
2022-09-10T13:21:25.225Z,98832.40
2022-09-10T13:23:58.776Z,98829.60
2022-09-10T13:26:30.977Z,98820.80
2022-09-10T13:29:01.105Z,98823.20
2022-09-10T13:31:34.815Z,98816.40
2022-09-10T13:34:14.959Z,98817.60
2022-09-10T13:37:01.045Z,98812.60
2022-09-10T13:40:00.183Z,98810.80
2022-09-10T13:43:10.102Z,98805.80
2022-09-10T13:46:02.923Z,98802.80
2022-09-10T13:48:46.046Z,98801.40
2022-09-10T13:51:40.522Z,98802.00
2022-09-10T13:54:35.064Z,98797.40
2022-09-10T13:57:21.569Z,98794.40
2022-09-10T13:59:51.706Z,98796.40
2022-09-10T14:02:20.970Z,98798.20
2022-09-10T14:04:48.646Z,98801.40
2022-09-10T14:07:22.864Z,98796.80
2022-09-10T14:09:57.353Z,98801.80
2022-09-10T14:12:27.714Z,98796.00
2022-09-10T14:15:01.005Z,98792.20
2022-09-10T14:17:37.968Z,98795.00
2022-09-10T14:20:31.730Z,98789.20
2022-09-10T14:23:07.728Z,98783.80
2022-09-10T14:25:40.698Z,98782.40
2022-09-10T14:28:26.548Z,98790.00
2022-09-10T14:31:21.402Z,98786.80
2022-09-10T14:33:49.423Z,98782.20
2022-09-10T14:36:23.973Z,98782.40
2022-09-10T14:39:07.542Z,98783.80
2022-09-10T14:41:35.999Z,98776.60
2022-09-10T14:44:24.341Z,98780.80
2022-09-10T14:47:09.300Z,98779.60
2022-09-10T14:49:38.941Z,98775.40
2022-09-10T14:52:07.693Z,98783.60
2022-09-10T14:54:35.668Z,98780.40
2022-09-10T14:57:06.329Z,98782.60
2022-09-10T14:59:38.209Z,98785.40
2022-09-10T15:02:26.579Z,98780.40
2022-09-10T15:04:54.844Z,98778.20
2022-09-10T15:07:23.759Z,98779.60
2022-09-10T15:09:53.682Z,98779.60
2022-09-10T15:12:29.221Z,98777.80
2022-09-10T15:15:00.314Z,98774.00
2022-09-10T15:17:28.346Z,98774.20
2022-09-10T15:19:57.686Z,98774.60
2022-09-10T15:22:27.866Z,98775.40
2022-09-10T15:25:09.618Z,98776.40
2022-09-10T15:27:38.155Z,98774.80
2022-09-10T15:30:07.279Z,98776.60
2022-09-10T15:32:35.416Z,98776.60
2022-09-10T15:35:04.264Z,98777.00
2022-09-10T15:37:32.487Z,98776.40
2022-09-10T15:40:00.977Z,98777.40
2022-09-10T15:42:28.625Z,98769.80
2022-09-10T15:44:56.797Z,98775.40
2022-09-10T15:47:26.096Z,98779.20
2022-09-10T15:49:53.856Z,98786.00
2022-09-10T15:52:22.136Z,98787.40
2022-09-10T15:54:49.995Z,98794.80
2022-09-10T15:57:17.966Z,98785.00
2022-09-10T15:59:46.657Z,98790.60
2022-09-10T16:02:14.880Z,98787.40
2022-09-10T16:04:44.351Z,98791.40
2022-09-10T16:07:13.558Z,98795.40
2022-09-10T16:09:43.347Z,98795.00
2022-09-10T16:12:12.230Z,98793.40
2022-09-10T16:14:39.886Z,98800.80
2022-09-10T16:17:10.479Z,98803.00
2022-09-10T16:19:38.652Z,98799.00
2022-09-10T16:22:06.976Z,98798.40
2022-09-10T16:24:35.249Z,98798.00
2022-09-10T16:27:03.757Z,98799.20
2022-09-10T16:29:32.416Z,98801.80
2022-09-10T16:32:00.018Z,98800.60
2022-09-10T16:34:27.944Z,98799.60
2022-09-10T16:36:56.215Z,98797.00
2022-09-10T16:39:25.547Z,98791.40
2022-09-10T16:41:53.386Z,98789.60
2022-09-10T16:44:21.562Z,98790.20
2022-09-10T16:46:49.837Z,98785.80
2022-09-10T16:49:19.548Z,98785.00
2022-09-10T16:51:49.208Z,98777.80
2022-09-10T16:54:20.600Z,98777.40
2022-09-10T16:56:50.638Z,98769.80
2022-09-10T16:59:21.289Z,98770.80
2022-09-10T17:01:51.596Z,98771.80
2022-09-10T17:04:26.312Z,98767.40
2022-09-10T17:07:02.774Z,98770.00
2022-09-10T17:09:30.329Z,98766.20
2022-09-10T17:11:58.438Z,98771.80
2022-09-10T17:14:26.577Z,98770.20
2022-09-10T17:16:54.539Z,98768.60
2022-09-10T17:19:24.074Z,98770.20
2022-09-10T17:21:55.312Z,98764.80
2022-09-10T17:24:24.918Z,98769.60
2022-09-10T17:26:55.286Z,98771.80
2022-09-10T17:29:25.143Z,98772.80
2022-09-10T17:31:54.947Z,98770.00
2022-09-10T17:34:24.273Z,98773.20
2022-09-10T17:36:52.483Z,98771.80
2022-09-10T17:39:20.238Z,98771.60
2022-09-10T17:41:48.469Z,98776.20
2022-09-10T17:44:16.684Z,98781.60
2022-09-10T17:46:46.053Z,98782.20
2022-09-10T17:49:14.762Z,98779.00
2022-09-10T17:51:42.729Z,98779.00
2022-09-10T17:54:12.964Z,98783.60
2022-09-10T17:56:41.765Z,98783.60
2022-09-10T17:59:12.865Z,98780.60
2022-09-10T18:01:40.762Z,98787.60
2022-09-10T18:04:12.473Z,98783.40
2022-09-10T18:06:40.893Z,98782.00
2022-09-10T18:09:09.645Z,98781.00
2022-09-10T18:11:40.080Z,98776.80
2022-09-10T18:14:18.780Z,98781.00
2022-09-10T18:16:46.958Z,98784.60
2022-09-10T18:19:16.320Z,98780.00
2022-09-10T18:21:46.769Z,98779.20
2022-09-10T18:24:22.850Z,98779.00
2022-09-10T18:26:57.582Z,98783.20
2022-09-10T18:29:29.748Z,98776.80
2022-09-10T18:32:00.530Z,98775.80
2022-09-10T18:34:35.566Z,98774.60
2022-09-10T18:37:08.216Z,98773.60
2022-09-10T18:39:36.530Z,98774.40
2022-09-10T18:42:05.377Z,98777.00
2022-09-10T18:44:36.518Z,98780.40
2022-09-10T18:47:28.037Z,98775.40
2022-09-10T18:49:59.002Z,98775.60
2022-09-10T18:52:28.977Z,98772.60
2022-09-10T18:54:57.566Z,98773.40
2022-09-10T18:57:25.939Z,98768.60
2022-09-10T18:59:55.448Z,98771.40
2022-09-10T19:02:23.623Z,98775.20
2022-09-10T19:05:10.275Z,98773.20
2022-09-10T19:07:39.427Z,98774.00
2022-09-10T19:10:08.676Z,98774.00
2022-09-10T19:12:36.379Z,98771.00
2022-09-10T19:15:04.766Z,98769.00
2022-09-10T19:17:32.827Z,98766.20
2022-09-10T19:20:00.496Z,98764.60
2022-09-10T19:22:28.503Z,98764.40
2022-09-10T19:24:56.486Z,98770.20
2022-09-10T19:27:24.701Z,98766.00
2022-09-10T19:29:53.722Z,98770.60
2022-09-10T19:32:21.979Z,98769.00
2022-09-10T19:34:51.171Z,98764.20
2022-09-10T19:37:20.583Z,98764.00
2022-09-10T19:39:49.026Z,98758.80
2022-09-10T19:42:17.632Z,98754.40
2022-09-10T19:44:45.822Z,98759.40
2022-09-10T19:47:14.157Z,98759.20
2022-09-10T19:49:43.075Z,98755.00
2022-09-10T19:52:10.748Z,98756.00
2022-09-10T19:54:38.605Z,98762.60
2022-09-10T19:57:06.485Z,98760.60
2022-09-10T19:59:35.453Z,98760.60
2022-09-10T20:02:04.455Z,98757.20
2022-09-10T20:04:33.349Z,98758.40
2022-09-10T20:07:01.117Z,98750.20
2022-09-10T20:09:29.086Z,98745.60
2022-09-10T20:11:57.255Z,98750.00
2022-09-10T20:14:25.122Z,98746.40
2022-09-10T20:16:52.991Z,98750.60
2022-09-10T20:19:21.883Z,98747.40
2022-09-10T20:21:49.640Z,98749.60
2022-09-10T20:24:17.920Z,98746.60
2022-09-10T20:26:46.456Z,98742.80
2022-09-10T20:29:18.463Z,98747.40
2022-09-10T20:31:46.845Z,98740.00
2022-09-10T20:34:20.854Z,98740.80
2022-09-10T20:36:51.010Z,98740.20
2022-09-10T20:39:21.335Z,98734.00
2022-09-10T20:41:49.472Z,98737.60
2022-09-10T20:44:17.741Z,98734.20
2022-09-10T20:46:45.322Z,98734.80
2022-09-10T20:49:16.361Z,98733.40
2022-09-10T20:51:44.760Z,98733.40
2022-09-10T20:54:15.861Z,98739.40
2022-09-10T20:56:44.141Z,98737.40
2022-09-10T20:59:14.361Z,98737.40
2022-09-10T21:01:44.264Z,98737.40
2022-09-10T21:04:13.072Z,98738.20
2022-09-10T21:06:40.954Z,98740.00
2022-09-10T21:09:09.160Z,98733.40
2022-09-10T21:11:37.498Z,98732.40
2022-09-10T21:14:06.991Z,98736.40
2022-09-10T21:16:37.400Z,98736.40
2022-09-10T21:19:11.402Z,98735.00
2022-09-10T21:21:39.915Z,98735.80
2022-09-10T21:24:12.110Z,98731.00
2022-09-10T21:26:43.047Z,98733.40
2022-09-10T21:29:19.521Z,98731.00
2022-09-10T21:31:50.845Z,98731.80
2022-09-10T21:34:19.215Z,98735.00
2022-09-10T21:36:47.490Z,98736.60
2022-09-10T21:39:18.042Z,98737.80
2022-09-10T21:41:50.802Z,98740.40
2022-09-10T21:44:24.930Z,98737.20
2022-09-10T21:46:53.793Z,98740.40
2022-09-10T21:49:22.080Z,98736.20
2022-09-10T21:51:50.872Z,98734.80
2022-09-10T21:54:21.730Z,98735.20
2022-09-10T21:56:50.493Z,98735.40
2022-09-10T21:59:21.223Z,98734.00
2022-09-10T22:01:50.826Z,98739.00
2022-09-10T22:04:22.881Z,98733.20
2022-09-10T22:06:51.782Z,98736.80
2022-09-10T22:09:21.031Z,98738.20
2022-09-10T22:11:54.229Z,98738.60
2022-09-10T22:14:23.887Z,98742.00
2022-09-10T22:16:52.471Z,98740.60
2022-09-10T22:19:24.851Z,98745.60
2022-09-10T22:21:57.070Z,98744.80
2022-09-10T22:24:25.782Z,98740.20
2022-09-10T22:26:54.763Z,98733.40
2022-09-10T22:29:23.164Z,98735.60
2022-09-10T22:31:53.691Z,98735.60
2022-09-10T22:34:22.324Z,98735.80
2022-09-10T22:36:51.481Z,98730.20
2022-09-10T22:39:21.085Z,98730.80
2022-09-10T22:41:50.073Z,98729.60
2022-09-10T22:44:19.074Z,98733.00
2022-09-10T22:46:48.831Z,98732.00
2022-09-10T22:49:17.472Z,98735.00
2022-09-10T22:51:45.951Z,98733.00
2022-09-10T22:54:14.506Z,98732.00
2022-09-10T22:56:44.700Z,98730.60
2022-09-10T22:59:13.779Z,98730.60
2022-09-10T23:01:46.988Z,98730.40
2022-09-10T23:04:15.217Z,98725.80
2022-09-10T23:06:43.378Z,98731.80
2022-09-10T23:09:14.277Z,98730.40
2022-09-10T23:11:45.056Z,98728.60
2022-09-10T23:14:19.707Z,98727.60
2022-09-10T23:16:49.675Z,98722.60
2022-09-10T23:19:22.827Z,98727.40
2022-09-10T23:21:53.647Z,98727.80
2022-09-10T23:24:24.083Z,98722.20
2022-09-10T23:26:52.022Z,98721.00
2022-09-10T23:29:20.325Z,98721.40
2022-09-10T23:31:48.049Z,98719.60
2022-09-10T23:34:17.663Z,98720.80
2022-09-10T23:36:46.657Z,98722.20
2022-09-10T23:39:17.778Z,98725.60
2022-09-10T23:41:46.592Z,98723.60
2022-09-10T23:44:15.174Z,98721.40
2022-09-10T23:46:44.317Z,98717.60
2022-09-10T23:49:12.961Z,98720.80
2022-09-10T23:51:40.920Z,98716.80
2022-09-10T23:54:10.115Z,98712.20
2022-09-10T23:56:39.105Z,98712.20
2022-09-10T23:59:07.488Z,98702.80
